Time;durP1;ratioP1;P1;durP2;ratioP2;P2;SDS_P1;SDS_P2;PMS_P1;PMS_P2;Temp;Humidity;BMP_temperature;BMP_pressure;BME280_temperature;BME280_humidity;BME280_pressure;Samples;Min_cycle;Max_cycle;Signal;HPM_P1;HPM_P2
2023/06/02 00:00:07;;;;;;;11.10;3.23;;;;;;;15.35;54.25;102008.56;5173806;28;20065;-82
2023/06/02 00:02:39;;;;;;;9.20;2.37;;;;;;;15.38;55.02;102012.81;5172841;28;20031;-83
2023/06/02 00:05:10;;;;;;;8.40;3.47;;;;;;;15.56;54.03;102030.16;5173108;28;20052;-82
2023/06/02 00:07:41;;;;;;;9.40;2.43;;;;;;;15.38;55.36;102040.03;5171739;28;20088;-83
2023/06/02 00:10:13;;;;;;;7.77;2.27;;;;;;;15.09;55.17;101984.63;5155403;28;20031;-81
2023/06/02 00:12:44;;;;;;;11.80;2.43;;;;;;;15.52;54.32;102025.13;5172449;28;20049;-81
2023/06/02 00:15:17;;;;;;;10.13;2.63;;;;;;;15.45;55.01;102009.69;5184442;28;20034;-81
2023/06/02 00:17:48;;;;;;;7.80;2.83;;;;;;;15.66;55.23;102046.25;5192697;28;20031;-81
2023/06/02 00:20:20;;;;;;;9.13;2.60;;;;;;;15.21;55.11;102025.25;5183417;28;20656;-82
2023/06/02 00:22:54;;;;;;;7.97;2.90;;;;;;;15.02;55.62;102001.75;5172556;28;20052;-81
2023/06/02 00:25:25;;;;;;;11.25;2.97;;;;;;;15.05;55.88;102002.41;5172257;28;20023;-82
2023/06/02 00:27:57;;;;;;;11.73;3.73;;;;;;;14.92;56.06;101983.88;5172273;28;20110;-82
2023/06/02 00:30:28;;;;;;;12.20;3.13;;;;;;;14.98;56.20;102023.06;5172123;28;20768;-82
2023/06/02 00:33:01;;;;;;;10.50;3.10;;;;;;;15.16;55.34;102001.78;5172106;28;20034;-81
2023/06/02 00:35:32;;;;;;;9.37;2.50;;;;;;;15.06;55.66;102013.84;5171741;28;20076;-81
2023/06/02 00:38:04;;;;;;;7.60;2.63;;;;;;;15.36;55.46;102048.06;5170871;28;20031;-81
2023/06/02 00:40:36;;;;;;;9.03;3.40;;;;;;;15.19;55.20;102021.84;5153374;28;20477;-81
2023/06/02 00:43:07;;;;;;;14.73;2.97;;;;;;;15.31;54.61;102018.44;5171818;28;20023;-81
2023/06/02 00:45:38;;;;;;;9.33;2.73;;;;;;;15.52;54.01;102040.97;5171337;28;20019;-81
2023/06/02 00:48:10;;;;;;;10.23;2.90;;;;;;;15.38;54.09;102049.78;5171942;28;20508;-81
2023/06/02 00:50:42;;;;;;;8.73;2.87;;;;;;;14.89;54.65;101997.22;5170815;28;20026;-82
2023/06/02 00:53:14;;;;;;;10.17;2.70;;;;;;;14.96;55.00;102019.66;5172382;28;20023;-82
2023/06/02 00:55:46;;;;;;;10.50;3.80;;;;;;;15.23;53.00;102010.16;5172617;28;20152;-82
2023/06/02 00:58:17;;;;;;;11.73;3.27;;;;;;;15.06;53.49;102011.19;5155014;28;21129;-82
2023/06/02 01:00:49;;;;;;;9.60;3.20;;;;;;;15.04;54.30;102026.25;5155044;28;20029;-82
2023/06/02 01:03:21;;;;;;;12.87;2.93;;;;;;;14.84;53.88;102010.69;5155217;28;20019;-82
2023/06/02 01:05:55;;;;;;;10.00;2.57;;;;;;;14.65;54.01;101981.88;5170505;28;20034;-82
2023/06/02 01:08:29;;;;;;;8.18;3.53;;;;;;;14.85;53.56;102008.91;5171809;28;20026;-82
2023/06/02 01:11:01;;;;;;;12.55;3.28;;;;;;;14.96;52.58;102009.09;5171912;28;20038;-82
2023/06/02 01:13:33;;;;;;;11.23;3.37;;;;;;;14.58;53.51;101988.47;5154379;28;20402;-81
2023/06/02 01:16:05;;;;;;;10.13;3.67;;;;;;;14.62;53.26;101995.25;5172248;28;20033;-81
2023/06/02 01:18:36;;;;;;;10.53;2.90;;;;;;;14.91;52.55;102031.41;5171369;28;20027;-82
2023/06/02 01:21:09;;;;;;;15.27;3.13;;;;;;;14.48;53.26;101985.53;5170942;28;20015;-81
2023/06/02 01:23:49;;;;;;;17.27;4.17;;;;;;;14.50;53.34;102008.19;5170928;28;20015;-80
2023/06/02 01:26:20;;;;;;;17.33;4.23;;;;;;;14.95;51.98;102038.22;5171354;28;20455;-80
2023/06/02 01:28:52;;;;;;;11.43;3.47;;;;;;;14.52;52.37;102008.97;5171186;28;20090;-81
2023/06/02 01:31:28;;;;;;;16.57;5.00;;;;;;;14.49;52.61;102003.88;5170688;28;20023;-80
2023/06/02 01:34:14;;;;;;;14.07;3.47;;;;;;;14.50;53.25;102026.66;5171485;28;20031;-81
2023/06/02 01:36:48;;;;;;;15.47;3.47;;;;;;;14.57;53.16;102052.69;5170798;28;20053;-81
2023/06/02 01:39:22;;;;;;;17.00;3.97;;;;;;;14.33;54.16;102032.06;5170945;28;20034;-81
2023/06/02 01:41:55;;;;;;;17.55;4.10;;;;;;;14.45;53.18;102031.34;5170376;28;20487;-81
2023/06/02 01:44:27;;;;;;;13.20;3.70;;;;;;;14.36;52.33;101992.34;5170744;28;20035;-81
2023/06/02 01:46:59;;;;;;;10.97;3.80;;;;;;;14.38;52.66;102027.38;5170044;28;20069;-81
2023/06/02 01:49:31;;;;;;;13.70;3.93;;;;;;;14.40;53.21;102025.50;5171146;28;20046;-81
2023/06/02 01:52:02;;;;;;;19.60;4.77;;;;;;;14.51;53.68;102049.47;5170309;28;20031;-82
2023/06/02 01:54:34;;;;;;;16.13;4.10;;;;;;;14.37;53.36;102001.94;5171102;28;20062;-81
2023/06/02 01:57:07;;;;;;;19.90;4.27;;;;;;;14.62;52.73;102032.16;5171532;28;20031;-81
2023/06/02 01:59:38;;;;;;;15.03;4.00;;;;;;;14.19;53.88;102003.88;5153327;28;20729;-81
2023/06/02 02:02:09;;;;;;;13.93;4.07;;;;;;;14.25;53.95;101999.09;5170678;28;20027;-81
2023/06/02 02:04:41;;;;;;;10.23;3.70;;;;;;;14.32;53.56;102001.38;5170795;28;20080;-81
2023/06/02 02:07:12;;;;;;;12.80;3.70;;;;;;;14.34;53.66;102008.25;5170420;28;20042;-83
2023/06/02 02:09:45;;;;;;;19.63;4.93;;;;;;;14.36;53.71;102011.66;5154225;28;20027;-81
2023/06/02 02:12:17;;;;;;;20.13;4.50;;;;;;;14.26;54.46;102032.41;5155631;28;20055;-81
2023/06/02 02:14:53;;;;;;;17.27;3.60;;;;;;;14.43;54.39;102033.25;5174466;28;20092;-81
2023/06/02 02:17:25;;;;;;;22.27;4.87;;;;;;;14.34;54.24;102029.34;5175258;28;20023;-82
2023/06/02 02:19:56;;;;;;;17.10;5.33;;;;;;;14.19;54.17;102012.59;5174735;28;20034;-82
2023/06/02 02:22:28;;;;;;;14.10;3.60;;;;;;;14.08;54.60;101992.16;5173991;28;20030;-82
2023/06/02 02:24:59;;;;;;;14.57;3.67;;;;;;;14.11;55.63;102033.28;5174604;28;20026;-82
2023/06/02 02:27:31;;;;;;;14.27;4.07;;;;;;;14.27;54.78;102025.34;5157384;28;20064;-81
2023/06/02 02:30:04;;;;;;;19.37;4.33;;;;;;;14.24;55.46;102041.34;5174202;28;20543;-81
2023/06/02 02:32:39;;;;;;;15.97;3.63;;;;;;;14.20;55.74;102016.94;5173227;28;20031;-80
2023/06/02 02:35:11;;;;;;;16.90;4.73;;;;;;;14.18;56.04;102046.94;5173338;28;20038;-82
2023/06/02 02:37:44;;;;;;;13.30;3.90;;;;;;;14.12;55.36;102021.81;5156030;28;20042;-82
2023/06/02 02:40:17;;;;;;;15.77;3.83;;;;;;;14.22;55.80;102015.09;5174704;28;20165;-83
2023/06/02 02:42:48;;;;;;;16.57;3.87;;;;;;;14.47;54.49;102026.00;5157504;28;20038;-83
2023/06/02 02:45:20;;;;;;;10.20;3.37;;;;;;;14.18;55.78;102018.81;5174798;28;20049;-83
2023/06/02 02:47:51;;;;;;;12.00;3.70;;;;;;;14.09;55.86;102003.53;5174473;28;20030;-83
2023/06/02 02:50:23;;;;;;;14.67;4.80;;;;;;;14.35;54.67;102003.81;5172685;28;20038;-83
2023/06/02 02:52:55;;;;;;;13.27;3.53;;;;;;;14.34;55.63;102025.84;5157154;28;20100;-83
2023/06/02 02:55:26;;;;;;;11.10;3.83;;;;;;;14.31;55.32;101986.50;5174376;28;20072;-82
2023/06/02 02:57:59;;;;;;;10.40;3.33;;;;;;;14.30;56.38;101998.81;5173804;28;20034;-82
2023/06/02 03:00:32;;;;;;;18.13;4.40;;;;;;;14.26;55.87;101992.88;5174091;28;20035;-82
2023/06/02 03:03:05;;;;;;;14.27;3.67;;;;;;;14.32;56.10;101996.97;5173707;28;20105;-82
2023/06/02 03:05:37;;;;;;;14.88;5.22;;;;;;;14.17;56.68;101995.19;5173448;28;20153;-82
2023/06/02 03:08:09;;;;;;;11.07;3.77;;;;;;;14.45;55.57;102001.53;5174355;28;20022;-83
2023/06/02 03:10:42;;;;;;;16.07;4.07;;;;;;;14.20;56.26;101977.44;5173297;28;20019;-83
2023/06/02 03:13:14;;;;;;;12.43;3.93;;;;;;;14.55;55.66;102021.13;5156549;28;20047;-83
2023/06/02 03:15:45;;;;;;;15.43;4.03;;;;;;;14.18;56.69;101992.47;5173545;28;20052;-83
2023/06/02 03:18:19;;;;;;;11.77;3.83;;;;;;;14.24;56.43;101989.47;5156460;28;20448;-83
2023/06/02 03:20:51;;;;;;;12.73;3.53;;;;;;;14.45;55.83;102023.44;5155787;28;20027;-83
2023/06/02 03:23:30;;;;;;;15.33;4.67;;;;;;;14.26;56.86;102019.22;5171590;28;20463;-83
2023/06/02 03:26:02;;;;;;;15.93;4.23;;;;;;;14.11;56.98;102018.31;5153973;28;20099;-83
2023/06/02 03:28:34;;;;;;;13.70;3.97;;;;;;;14.13;57.31;102027.00;5153680;28;20028;-83
2023/06/02 03:31:13;;;;;;;10.27;4.03;;;;;;;14.12;56.56;101998.09;5153212;28;20046;-83
2023/06/02 03:33:44;;;;;;;18.50;3.80;;;;;;;13.83;58.09;102006.69;5151816;28;20023;-83
2023/06/02 03:36:18;;;;;;;14.63;4.63;;;;;;;13.97;57.31;102016.47;5152771;29;20034;-83
2023/06/02 03:38:49;;;;;;;16.83;4.23;;;;;;;13.98;57.40;102010.25;5153440;28;20110;-83
2023/06/02 03:41:21;;;;;;;9.70;3.23;;;;;;;13.85;57.16;102003.97;5153858;28;20110;-83
2023/06/02 03:43:53;;;;;;;15.73;4.50;;;;;;;13.69;57.65;102002.19;5152908;28;20487;-83
2023/06/02 03:46:25;;;;;;;16.00;4.30;;;;;;;13.81;56.30;102010.34;5168255;28;20054;-83
2023/06/02 03:48:56;;;;;;;12.77;3.53;;;;;;;13.79;55.74;102007.78;5153680;28;20023;-83
2023/06/02 03:51:27;;;;;;;12.57;3.60;;;;;;;13.78;56.46;102033.28;5153594;28;20054;-83
2023/06/02 03:53:59;;;;;;;11.50;3.80;;;;;;;13.67;55.78;101998.78;5153282;28;20038;-83
2023/06/02 03:56:30;;;;;;;11.03;3.73;;;;;;;13.46;56.84;102012.13;5153568;28;20019;-83
2023/06/02 03:59:02;;;;;;;15.33;3.50;;;;;;;13.58;57.06;102022.97;5153909;28;20085;-83
2023/06/02 04:01:35;;;;;;;15.77;4.47;;;;;;;13.35;58.09;102002.19;5168361;28;20023;-83
2023/06/02 04:04:11;;;;;;;13.87;4.10;;;;;;;14.00;55.79;102058.41;5153433;28;20072;-83
2023/06/02 04:06:43;;;;;;;17.03;3.77;;;;;;;13.55;56.73;102021.34;5165787;28;20050;-83
2023/06/02 04:09:14;;;;;;;11.07;3.23;;;;;;;13.76;56.21;102019.34;5173449;28;20050;-83
2023/06/02 04:11:45;;;;;;;14.10;3.70;;;;;;;13.76;55.95;102029.88;5172682;28;20403;-83
2023/06/02 04:14:17;;;;;;;12.47;4.17;;;;;;;13.43;57.51;102047.38;5156029;28;20023;-83
2023/06/02 04:16:49;;;;;;;16.87;5.03;;;;;;;13.16;59.19;102037.34;5172868;28;20092;-83
2023/06/02 04:19:20;;;;;;;12.43;3.60;;;;;;;13.38;58.32;102019.59;5172648;28;20030;-83
2023/06/02 04:21:54;;;;;;;15.93;3.53;;;;;;;13.42;57.49;102029.03;5169335;28;20090;-83
2023/06/02 04:24:25;;;;;;;14.10;3.35;;;;;;;13.50;57.12;102033.88;5135590;28;20023;-83
2023/06/02 04:26:56;;;;;;;7.03;2.73;;;;;;;13.58;58.11;102054.56;5135757;29;20031;-83
2023/06/02 04:29:29;;;;;;;13.50;3.80;;;;;;;13.40;56.85;102012.47;5153497;29;20105;-82
2023/06/02 04:32:01;;;;;;;9.40;3.07;;;;;;;13.54;56.87;102025.75;5152725;29;20059;-82
2023/06/02 04:34:32;;;;;;;9.50;2.83;;;;;;;13.37;56.48;101996.84;5152220;28;20024;-82
2023/06/02 04:37:04;;;;;;;10.40;3.00;;;;;;;13.75;55.69;102043.94;5152372;28;20077;-81
2023/06/02 04:39:35;;;;;;;12.83;4.17;;;;;;;13.48;57.72;102057.66;5152928;28;20035;-81
2023/06/02 04:42:07;;;;;;;12.07;3.60;;;;;;;13.42;57.34;102027.22;5135890;28;20034;-82
2023/06/02 04:44:39;;;;;;;13.27;2.87;;;;;;;13.37;56.87;102023.16;5152326;29;20020;-81
2023/06/02 04:47:11;;;;;;;8.97;3.17;;;;;;;13.46;56.08;102017.41;5152973;28;20027;-82
2023/06/02 04:49:42;;;;;;;13.87;3.70;;;;;;;13.38;56.53;102009.06;5152416;28;20838;-81
2023/06/02 04:52:13;;;;;;;13.97;3.60;;;;;;;13.50;55.86;102029.47;5151520;28;20062;-81
2023/06/02 04:54:45;;;;;;;12.97;3.33;;;;;;;13.76;55.48;102034.28;5150667;28;20035;-80
2023/06/02 04:57:17;;;;;;;15.67;4.07;;;;;;;13.37;56.92;102023.16;5152136;28;20039;-80
2023/06/02 04:59:49;;;;;;;9.97;3.40;;;;;;;13.82;55.81;102062.06;5135331;29;20035;-82
2023/06/02 05:02:21;;;;;;;11.93;3.63;;;;;;;13.43;57.36;102041.25;5135943;28;20093;-82
2023/06/02 05:04:52;;;;;;;9.33;3.03;;;;;;;13.37;56.66;102041.59;5152627;28;20030;-82
2023/06/02 05:07:24;;;;;;;13.17;3.80;;;;;;;13.40;55.43;102029.13;5152362;29;20031;-82
2023/06/02 05:09:55;;;;;;;10.03;3.30;;;;;;;13.22;56.71;102041.44;5152174;29;20031;-81
2023/06/02 05:12:26;;;;;;;10.43;3.03;;;;;;;13.38;55.84;102048.53;5152744;28;20112;-82
2023/06/02 05:15:07;;;;;;;9.73;3.10;;;;;;;13.40;56.42;102057.19;5153384;29;20183;-81
2023/06/02 05:17:40;;;;;;;11.30;3.33;;;;;;;13.17;56.97;102054.00;5151695;29;20042;-82
2023/06/02 05:20:11;;;;;;;10.27;2.77;;;;;;;13.54;55.37;102049.44;5133813;28;20027;-80
2023/06/02 05:22:42;;;;;;;14.57;3.20;;;;;;;13.44;56.53;102064.00;5161933;28;20038;-83
2023/06/02 05:25:14;;;;;;;10.00;3.87;;;;;;;13.40;55.40;102036.16;5172721;28;20026;-84
2023/06/02 05:27:45;;;;;;;10.80;2.73;;;;;;;13.64;54.96;102047.19;5150924;28;20019;-84
2023/06/02 05:30:17;;;;;;;13.27;3.07;;;;;;;13.58;56.08;102063.28;5161801;28;20035;-83
2023/06/02 05:32:48;;;;;;;12.47;3.07;;;;;;;13.34;56.22;102034.69;5171185;28;20775;-81
2023/06/02 05:35:19;;;;;;;13.67;3.70;;;;;;;13.43;57.08;102065.78;5154504;28;20027;-85
2023/06/02 05:37:51;;;;;;;18.63;3.57;;;;;;;13.50;57.27;102065.47;5172200;28;20054;-81
2023/06/02 05:40:24;;;;;;;13.70;3.70;;;;;;;13.50;56.81;102050.53;5203242;28;20031;-81
2023/06/02 05:42:56;;;;;;;12.55;3.63;;;;;;;13.34;56.26;102045.22;5170993;28;20019;-83
2023/06/02 05:45:27;;;;;;;12.83;4.07;;;;;;;13.41;56.23;102048.38;5153456;28;20577;-83
2023/06/02 05:47:58;;;;;;;12.53;2.93;;;;;;;13.42;55.81;102052.72;5163438;28;20022;-82
2023/06/02 05:50:30;;;;;;;12.43;3.23;;;;;;;13.30;56.79;102036.63;5193059;28;20031;-83
2023/06/02 05:53:01;;;;;;;11.33;3.10;;;;;;;13.51;55.68;102036.41;5173033;28;20356;-83
2023/06/02 05:55:33;;;;;;;13.67;3.40;;;;;;;13.43;55.34;102042.09;5173840;28;20039;-83
2023/06/02 05:58:04;;;;;;;17.33;4.83;;;;;;;13.39;57.75;102058.13;5165921;28;20038;-83
2023/06/02 06:00:35;;;;;;;17.00;4.53;;;;;;;13.68;55.82;102074.19;5160921;28;20023;-83
2023/06/02 06:03:07;;;;;;;10.67;3.57;;;;;;;13.42;56.75;102057.97;5157355;28;20018;-83
2023/06/02 06:05:38;;;;;;;13.43;3.10;;;;;;;13.43;56.32;102065.78;5173185;28;20386;-84
2023/06/02 06:08:09;;;;;;;16.83;3.77;;;;;;;13.31;56.13;102059.41;5157041;28;20023;-83
2023/06/02 06:10:44;;;;;;;15.87;4.10;;;;;;;13.38;56.47;102067.81;5162678;28;20034;-82
2023/06/02 06:13:15;;;;;;;10.63;3.55;;;;;;;13.03;56.62;102045.03;5173525;28;20568;-84
2023/06/02 06:15:47;;;;;;;13.50;3.33;;;;;;;13.52;57.01;102090.81;5156653;28;20043;-82
2023/06/02 06:18:19;;;;;;;16.97;3.23;;;;;;;13.27;57.30;102041.19;5151921;28;20049;-83
2023/06/02 06:20:50;;;;;;;17.20;4.27;;;;;;;13.35;55.82;102059.22;5167695;28;20433;-83
2023/06/02 06:23:22;;;;;;;13.53;3.93;;;;;;;13.25;55.42;102046.53;5156113;28;20137;-83
2023/06/02 06:25:54;;;;;;;14.50;3.23;;;;;;;13.30;55.11;102051.56;5167205;28;20117;-83
2023/06/02 06:28:25;;;;;;;11.23;3.67;;;;;;;13.52;55.31;102067.13;5166335;28;20035;-83
2023/06/02 06:30:56;;;;;;;11.57;3.03;;;;;;;13.41;54.97;102046.59;5147906;28;20539;-84
2023/06/02 06:33:29;;;;;;;14.93;3.37;;;;;;;13.72;54.73;102069.63;5174175;28;20035;-84
2023/06/02 06:36:00;;;;;;;15.07;3.13;;;;;;;13.71;54.02;102058.22;5172994;28;20031;-83
2023/06/02 06:38:32;;;;;;;10.67;3.50;;;;;;;13.75;54.40;102075.53;5168032;28;20491;-83
2023/06/02 06:41:03;;;;;;;11.67;4.30;;;;;;;13.57;54.75;102066.00;5165403;28;20109;-83
2023/06/02 06:43:35;;;;;;;10.73;3.60;;;;;;;13.85;53.88;102090.88;5155589;28;20140;-83
2023/06/02 06:46:06;;;;;;;10.70;2.80;;;;;;;13.66;53.59;102050.59;5173750;28;20027;-83
2023/06/02 06:48:38;;;;;;;11.47;3.73;;;;;;;13.72;54.35;102059.09;5172478;28;20110;-83
2023/06/02 06:51:09;;;;;;;14.20;3.97;;;;;;;13.60;54.40;102073.75;5256544;28;20038;-83
2023/06/02 06:53:40;;;;;;;17.47;3.40;;;;;;;13.63;55.11;102055.16;5156205;28;20343;-83
2023/06/02 06:56:12;;;;;;;9.47;3.07;;;;;;;13.77;54.94;102063.16;5157897;28;20343;-83
2023/06/02 06:58:43;;;;;;;13.77;3.57;;;;;;;13.91;54.32;102085.28;5152825;28;20027;-81
2023/06/02 07:01:15;;;;;;;19.70;4.07;;;;;;;13.89;53.62;102052.91;5159617;28;20027;-81
2023/06/02 07:03:46;;;;;;;14.20;3.23;;;;;;;13.87;54.42;102083.72;5172658;28;20050;-81
2023/06/02 07:06:30;;;;;;;13.03;3.60;;;;;;;14.25;53.48;102074.66;5171976;28;20734;-82
2023/06/02 07:09:02;;;;;;;9.73;2.70;;;;;;;14.07;53.22;102066.84;5168272;28;20023;-81
2023/06/02 07:11:34;;;;;;;11.77;3.43;;;;;;;13.95;53.25;102078.91;5152789;28;20031;-81
2023/06/02 07:14:05;;;;;;;15.97;3.40;;;;;;;13.83;53.26;102037.44;5155056;28;20065;-81
2023/06/02 07:16:36;;;;;;;12.50;3.17;;;;;;;14.13;53.59;102063.88;5252345;28;20105;-82
2023/06/02 07:19:08;;;;;;;14.53;3.57;;;;;;;14.22;53.14;102054.59;5153244;28;20035;-83
2023/06/02 07:21:39;;;;;;;15.97;3.23;;;;;;;14.35;53.19;102081.09;5157744;28;20682;-82
2023/06/02 07:24:11;;;;;;;18.47;4.30;;;;;;;14.18;52.77;102071.50;5155019;28;20089;-81
2023/06/02 07:26:43;;;;;;;13.50;3.00;;;;;;;14.13;53.45;102073.56;5170233;28;20030;-82
2023/06/02 07:29:14;;;;;;;10.23;3.53;;;;;;;14.40;51.66;102072.94;5154588;28;20042;-80
2023/06/02 07:31:46;;;;;;;17.33;3.23;;;;;;;14.33;52.57;102074.25;5170746;28;20030;-80
2023/06/02 07:34:17;;;;;;;13.97;3.40;;;;;;;14.46;52.31;102077.00;5170270;28;20058;-81
2023/06/02 07:36:49;;;;;;;15.53;3.37;;;;;;;14.26;52.51;102082.47;5151428;28;20098;-81
2023/06/02 07:39:21;;;;;;;17.13;3.30;;;;;;;14.37;51.57;102066.06;5150429;28;20061;-80
2023/06/02 07:41:52;;;;;;;16.03;3.33;;;;;;;14.48;52.12;102083.91;5150591;28;20050;-82
2023/06/02 07:44:23;;;;;;;12.40;2.87;;;;;;;14.71;52.11;102083.53;5150758;28;20034;-81
2023/06/02 07:46:55;;;;;;;13.97;3.37;;;;;;;14.91;51.55;102106.13;5151258;28;20375;-82
2023/06/02 07:49:26;;;;;;;14.80;3.63;;;;;;;14.52;51.71;102072.22;5152066;28;20094;-81
2023/06/02 07:51:59;;;;;;;11.50;3.37;;;;;;;14.61;51.68;102070.00;5150816;28;20093;-82
2023/06/02 07:54:30;;;;;;;12.20;3.13;;;;;;;14.78;52.51;102099.84;5150769;28;20057;-80
2023/06/02 07:57:01;;;;;;;15.43;4.10;;;;;;;15.04;51.50;102110.69;5165536;28;20023;-83
2023/06/02 08:00:15;;;;;;;15.97;3.30;;;;;;;15.40;51.76;102112.06;5170963;28;20034;-84
2023/06/02 08:02:49;;;;;;;15.20;2.97;;;;;;;15.27;50.91;102111.97;5171064;28;20290;-83
2023/06/02 08:05:22;;;;;;;16.05;4.10;;;;;;;14.95;52.43;102067.22;5169321;28;20386;-84
2023/06/02 08:07:56;;;;;;;19.57;4.63;;;;;;;15.36;49.58;102081.50;5168846;28;20018;-84
2023/06/02 08:10:33;;;;;;;12.93;2.92;;;;;;;15.41;48.83;102076.78;5151222;28;20019;-84
2023/06/02 08:13:11;;;;;;;11.43;3.63;;;;;;;15.09;50.09;102079.59;5167489;28;20054;-84
2023/06/02 08:15:44;;;;;;;12.53;3.53;;;;;;;15.44;49.68;102081.91;5172168;28;20034;-83
2023/06/02 08:18:15;;;;;;;12.67;3.10;;;;;;;15.40;48.74;102064.56;5172209;28;20027;-84
2023/06/02 08:20:47;;;;;;;9.70;2.77;;;;;;;15.62;49.08;102094.06;5171927;28;20033;-83
2023/06/02 08:23:19;;;;;;;10.33;3.07;;;;;;;16.06;48.48;102098.41;5172208;28;20506;-84
2023/06/02 08:25:50;;;;;;;15.83;3.30;;;;;;;16.18;46.83;102085.38;5170269;28;20536;-83
2023/06/02 08:28:24;;;;;;;10.57;3.07;;;;;;;16.14;46.68;102073.28;5168467;28;20027;-84
2023/06/02 08:30:58;;;;;;;13.73;3.55;;;;;;;16.34;46.47;102101.06;5168454;28;20026;-83
2023/06/02 08:33:33;;;;;;;11.90;4.13;;;;;;;16.12;47.03;102096.31;5168372;28;20027;-84
2023/06/02 08:36:06;;;;;;;18.70;3.97;;;;;;;15.83;47.29;102070.78;5166937;28;20037;-83
2023/06/02 08:38:40;;;;;;;15.70;3.10;;;;;;;15.95;47.23;102072.63;5168292;28;20026;-83
2023/06/02 08:41:14;;;;;;;18.35;3.08;;;;;;;16.07;47.03;102057.84;5251871;28;20027;-83
2023/06/02 08:43:51;;;;;;;13.77;2.80;;;;;;;16.28;45.81;102067.97;5151269;28;20027;-82
2023/06/02 08:46:22;;;;;;;18.90;3.87;;;;;;;16.34;45.33;102093.13;5171549;28;20039;-82
2023/06/02 08:48:57;;;;;;;10.37;3.20;;;;;;;16.29;46.04;102082.88;5172721;28;20027;-85
2023/06/02 08:52:11;;;;;;;15.27;3.83;;;;;;;16.86;46.21;102106.50;5175391;28;20038;-85
2023/06/02 08:54:52;;;;;;;12.43;2.97;;;;;;;16.86;46.01;102087.16;5236597;28;20080;-85
2023/06/02 08:57:25;;;;;;;14.17;4.00;;;;;;;16.90;45.19;102076.25;5173037;28;20491;-85
2023/06/02 08:59:58;;;;;;;15.87;3.53;;;;;;;17.01;44.19;102057.03;5162995;28;20114;-86
2023/06/02 09:02:29;;;;;;;12.83;3.60;;;;;;;17.32;43.59;102088.50;5151224;28;20201;-83
2023/06/02 09:05:05;;;;;;;14.57;3.17;;;;;;;17.56;43.40;102055.94;5161477;28;20573;-85
2023/06/02 09:07:36;;;;;;;14.47;4.97;;;;;;;18.30;42.38;102061.38;5169317;28;20474;-85
2023/06/02 09:10:08;;;;;;;13.63;3.33;;;;;;;18.14;41.46;102065.16;5170314;28;20038;-84
2023/06/02 09:12:48;;;;;;;13.23;3.57;;;;;;;18.34;41.55;102061.06;5175795;28;20633;-85
2023/06/02 09:15:19;;;;;;;11.70;2.83;;;;;;;18.36;40.80;102068.91;5159633;28;20027;-83
2023/06/02 09:17:51;;;;;;;10.57;3.40;;;;;;;18.64;41.13;102096.00;5158481;28;20026;-84
2023/06/02 09:20:30;;;;;;;18.87;4.77;;;;;;;19.27;40.63;102086.91;5160361;28;20487;-83
2023/06/02 09:23:02;;;;;;;9.93;3.03;;;;;;;19.79;39.98;102062.47;5155593;28;20035;-82
2023/06/02 09:25:35;;;;;;;13.30;4.47;;;;;;;20.43;37.09;102072.50;5159504;28;20349;-85
2023/06/02 09:28:09;;;;;;;13.03;4.17;;;;;;;20.61;36.97;102063.97;5149811;28;20023;-85
2023/06/02 09:30:40;;;;;;;13.25;3.85;;;;;;;20.61;36.60;102066.63;5163132;28;20027;-84
2023/06/02 09:33:11;;;;;;;12.87;3.23;;;;;;;21.10;37.47;102060.78;5165135;28;20088;-84
2023/06/02 09:35:46;;;;;;;13.65;3.55;;;;;;;21.74;34.74;102041.94;5147096;28;20223;-84
2023/06/02 09:38:18;;;;;;;9.50;3.33;;;;;;;22.91;33.76;102075.97;5131220;28;20454;-83
2023/06/02 09:40:51;;;;;;;8.65;3.15;;;;;;;23.23;32.48;102056.06;5176058;28;20034;-83
2023/06/02 09:43:28;;;;;;;11.93;4.20;;;;;;;23.52;32.11;102064.97;5171883;28;20034;-85
2023/06/02 09:46:01;;;;;;;16.75;3.63;;;;;;;23.56;32.40;102053.00;5211033;28;20278;-85
2023/06/02 09:48:34;;;;;;;13.25;3.80;;;;;;;24.28;31.33;102057.56;5166254;28;20080;-85
2023/06/02 09:51:23;;;;;;;15.52;3.58;;;;;;;24.74;31.91;102051.22;5158768;28;20113;-84
2023/06/02 09:53:55;;;;;;;12.00;3.63;;;;;;;23.78;30.95;102051.72;5166045;28;20417;-84
2023/06/02 09:56:29;;;;;;;12.73;4.75;;;;;;;23.14;31.45;102049.78;5165273;28;20080;-84
2023/06/02 09:59:01;;;;;;;;;;;;;;;25.13;32.23;102094.69;5167015;28;20027;-84
2023/06/02 10:01:36;;;;;;;11.23;4.05;;;;;;;23.19;31.99;102036.81;5150304;28;19941;-84
2023/06/02 10:04:10;;;;;;;12.40;3.40;;;;;;;23.27;31.95;102048.56;5146653;29;20134;-84
2023/06/02 10:07:27;;;;;;;11.77;3.53;;;;;;;24.05;32.64;102079.41;5146211;28;20039;-84
2023/06/02 10:10:10;;;;;;;9.48;3.70;;;;;;;24.79;31.21;102080.22;5145892;28;20039;-85
2023/06/02 10:13:08;;;;;;;11.15;3.40;;;;;;;24.59;31.03;102053.66;5145945;29;20085;-84
2023/06/02 10:16:01;;;;;;;16.42;4.20;;;;;;;25.63;30.31;102078.81;5146267;29;20097;-84
2023/06/02 10:18:58;;;;;;;10.63;3.72;;;;;;;25.44;30.69;102079.94;5157110;28;20088;-85
2023/06/02 10:22:04;;;;;;;12.15;3.97;;;;;;;26.62;28.91;102068.41;5185179;28;20037;-84
2023/06/02 10:24:53;;;;;;;11.18;3.30;;;;;;;26.06;29.00;102081.47;5168894;28;20056;-85
2023/06/02 10:27:29;;;;;;;10.40;3.33;;;;;;;26.12;28.97;102073.75;5186668;28;20030;-86
2023/06/02 10:30:01;;;;;;;11.02;3.90;;;;;;;25.56;29.69;102069.75;5170383;28;20030;-89
2023/06/02 10:32:46;;;;;;;13.35;3.78;;;;;;;25.48;30.01;102043.75;5172952;28;20034;-92
2023/06/02 10:35:18;;;;;;;8.98;3.95;;;;;;;25.14;30.69;102021.31;5174907;28;20041;-91
2023/06/02 10:38:25;;;;;;;11.32;3.83;;;;;;;26.01;30.46;102062.31;5175246;28;20026;-91
2023/06/02 10:41:05;;;;;;;13.30;3.90;;;;;;;25.19;30.05;102069.09;5176351;28;20472;-90
2023/06/02 10:43:37;;;;;;;11.07;3.08;;;;;;;25.54;30.50;102059.19;5253231;28;20024;-92
2023/06/02 10:46:21;;;;;;;10.70;3.90;;;;;;;25.27;30.39;102077.19;5261077;28;20035;-91
2023/06/02 10:48:52;;;;;;;;;;;;;;;26.69;29.95;102075.63;5261878;28;20036;-91
2023/06/02 10:51:23;;;;;;;13.52;3.35;;;;;;;25.47;29.48;102055.47;5202186;28;19914;-92
2023/06/02 10:54:07;;;;;;;8.85;3.03;;;;;;;25.56;30.56;102075.09;5207724;28;20115;-92
2023/06/02 10:56:39;;;;;;;12.27;3.63;;;;;;;26.08;30.20;102063.34;5255657;28;20059;-93
2023/06/02 10:59:30;;;;;;;15.40;3.85;;;;;;;26.10;30.80;102060.50;5261657;28;20021;-93
2023/06/02 11:02:03;;;;;;;12.98;4.20;;;;;;;25.12;30.48;102063.53;5260653;28;20095;-92
2023/06/02 11:04:36;;;;;;;9.85;3.28;;;;;;;25.37;30.50;102077.91;5258957;28;20021;-92
2023/06/02 11:07:26;;;;;;;9.53;3.90;;;;;;;25.26;30.49;102027.22;5260804;28;20564;-92
2023/06/02 11:09:59;;;;;;;14.15;3.95;;;;;;;25.07;31.72;102061.31;5260035;28;20028;-92
2023/06/02 11:12:49;;;;;;;12.23;3.72;;;;;;;26.06;31.39;102067.22;5255941;28;20118;-92
2023/06/02 11:15:21;;;;;;;10.48;3.38;;;;;;;25.46;30.80;102010.88;5258038;28;20060;-91
2023/06/02 11:17:52;;;;;;;13.48;3.55;;;;;;;25.78;30.26;102025.41;5258339;28;20076;-92
2023/06/02 11:20:34;;;;;;;11.77;3.75;;;;;;;25.53;31.59;102052.16;5151521;28;20149;-93
2023/06/02 11:23:06;;;;;;;10.70;3.50;;;;;;;25.57;31.20;102042.75;5153240;28;20027;-93
2023/06/02 11:25:39;;;;;;;9.35;3.78;;;;;;;24.81;32.10;102035.38;5151574;28;20046;-92
2023/06/02 11:28:20;;;;;;;12.30;3.90;;;;;;;26.04;31.19;102064.69;5149205;28;20103;-92
2023/06/02 11:31:08;;;;;;;10.15;3.50;;;;;;;25.68;31.35;102064.94;5130366;28;20118;-92
2023/06/02 11:33:51;;;;;;;12.35;3.28;;;;;;;25.60;30.51;102066.59;5146615;28;20038;-92
2023/06/02 11:36:28;;;;;;;11.32;3.65;;;;;;;25.62;31.34;102069.94;5146068;28;20034;-91
2023/06/02 11:39:08;;;;;;;14.60;3.97;;;;;;;25.13;31.87;102023.16;5130052;28;20038;-92
2023/06/02 11:41:39;;;;;;;15.23;4.15;;;;;;;24.61;32.46;102035.56;5137430;28;20726;-89
2023/06/02 11:44:13;;;;;;;13.95;4.20;;;;;;;24.61;31.86;102040.09;5160556;28;20027;-87
2023/06/02 11:46:45;;;;;;;11.90;4.30;;;;;;;23.96;32.94;102034.00;5149223;28;20073;-88
2023/06/02 11:49:17;;;;;;;12.23;3.70;;;;;;;23.44;33.49;102045.16;5146267;28;20027;-87